sensor_id;sensor_type;location;lat;lon;timestamp;pressure;altitude;pressure_sealevel;temperature;humidity
55914;BME280;58179;48.776;9.124;2024-03-07T00:00:14;97859.44;;;5.11;100.00
55914;BME280;58179;48.776;9.124;2024-03-07T00:02:41;97857.00;;;5.10;100.00
55914;BME280;58179;48.776;9.124;2024-03-07T00:05:08;97859.03;;;5.07;100.00
55914;BME280;58179;48.776;9.124;2024-03-07T00:07:34;97850.53;;;5.05;100.00
55914;BME280;58179;48.776;9.124;2024-03-07T00:10:03;97857.81;;;5.03;100.00
55914;BME280;58179;48.776;9.124;2024-03-07T00:12:31;97858.41;;;4.99;100.00
55914;BME280;58179;48.776;9.124;2024-03-07T00:14:57;97859.44;;;4.98;100.00
55914;BME280;58179;48.776;9.124;2024-03-07T00:17:25;97857.44;;;4.93;100.00
55914;BME280;58179;48.776;9.124;2024-03-07T00:19:51;97854.19;;;4.91;100.00
55914;BME280;58179;48.776;9.124;2024-03-07T00:22:18;97862.25;;;4.90;100.00
55914;BME280;58179;48.776;9.124;2024-03-07T00:24:44;97862.69;;;4.87;100.00
55914;BME280;58179;48.776;9.124;2024-03-07T00:27:13;97866.50;;;4.84;100.00
55914;BME280;58179;48.776;9.124;2024-03-07T00:29:40;97857.22;;;4.82;100.00
55914;BME280;58179;48.776;9.124;2024-03-07T00:32:06;97856.63;;;4.80;100.00
55914;BME280;58179;48.776;9.124;2024-03-07T00:34:34;97861.88;;;4.80;100.00
55914;BME280;58179;48.776;9.124;2024-03-07T00:37:00;97861.06;;;4.79;100.00
55914;BME280;58179;48.776;9.124;2024-03-07T00:39:28;97862.06;;;4.78;100.00
55914;BME280;58179;48.776;9.124;2024-03-07T00:41:56;97855.03;;;4.79;100.00
55914;BME280;58179;48.776;9.124;2024-03-07T00:44:22;97856.00;;;4.84;100.00
55914;BME280;58179;48.776;9.124;2024-03-07T00:46:48;97853.19;;;4.79;100.00
55914;BME280;58179;48.776;9.124;2024-03-07T00:49:14;97855.22;;;4.77;100.00
55914;BME280;58179;48.776;9.124;2024-03-07T00:51:43;97851.97;;;4.75;100.00
55914;BME280;58179;48.776;9.124;2024-03-07T00:54:10;97854.78;;;4.74;100.00
55914;BME280;58179;48.776;9.124;2024-03-07T00:56:38;97847.16;;;4.72;100.00
55914;BME280;58179;48.776;9.124;2024-03-07T00:59:05;97848.34;;;4.70;100.00
55914;BME280;58179;48.776;9.124;2024-03-07T01:01:31;97843.31;;;4.68;100.00
55914;BME280;58179;48.776;9.124;2024-03-07T01:03:59;97846.94;;;4.67;100.00
55914;BME280;58179;48.776;9.124;2024-03-07T01:06:26;97841.50;;;4.62;100.00
55914;BME280;58179;48.776;9.124;2024-03-07T01:08:53;97839.25;;;4.59;100.00
55914;BME280;58179;48.776;9.124;2024-03-07T01:11:19;97845.53;;;4.58;100.00
55914;BME280;58179;48.776;9.124;2024-03-07T01:13:46;97836.25;;;4.55;100.00
55914;BME280;58179;48.776;9.124;2024-03-07T01:16:12;97833.63;;;4.55;100.00
55914;BME280;58179;48.776;9.124;2024-03-07T01:18:38;97838.06;;;4.55;100.00
55914;BME280;58179;48.776;9.124;2024-03-07T01:21:05;97833.84;;;4.54;100.00
55914;BME280;58179;48.776;9.124;2024-03-07T01:23:32;97837.66;;;4.51;100.00
55914;BME280;58179;48.776;9.124;2024-03-07T01:25:59;97833.84;;;4.47;100.00
55914;BME280;58179;48.776;9.124;2024-03-07T01:28:26;97824.16;;;4.41;100.00
55914;BME280;58179;48.776;9.124;2024-03-07T01:30:56;97829.59;;;4.33;100.00
55914;BME280;58179;48.776;9.124;2024-03-07T01:33:22;97822.72;;;4.25;100.00
55914;BME280;58179;48.776;9.124;2024-03-07T01:35:49;97822.91;;;4.17;100.00
55914;BME280;58179;48.776;9.124;2024-03-07T01:38:15;97821.28;;;4.10;100.00
55914;BME280;58179;48.776;9.124;2024-03-07T01:40:42;97824.72;;;4.04;100.00
55914;BME280;58179;48.776;9.124;2024-03-07T01:43:10;97821.88;;;3.99;100.00
55914;BME280;58179;48.776;9.124;2024-03-07T01:45:36;97821.25;;;3.90;100.00
55914;BME280;58179;48.776;9.124;2024-03-07T01:48:04;97821.66;;;3.87;100.00
55914;BME280;58179;48.776;9.124;2024-03-07T01:50:30;97813.16;;;3.78;100.00
55914;BME280;58179;48.776;9.124;2024-03-07T01:52:56;97818.56;;;3.70;100.00
55914;BME280;58179;48.776;9.124;2024-03-07T01:55:23;97816.75;;;3.64;100.00
55914;BME280;58179;48.776;9.124;2024-03-07T01:57:49;97820.16;;;3.58;100.00
55914;BME280;58179;48.776;9.124;2024-03-07T02:00:17;97813.66;;;3.47;100.00
55914;BME280;58179;48.776;9.124;2024-03-07T02:02:44;97815.44;;;3.40;100.00
55914;BME280;58179;48.776;9.124;2024-03-07T02:05:11;97811.00;;;3.34;100.00
55914;BME280;58179;48.776;9.124;2024-03-07T02:07:37;97803.13;;;3.28;100.00
55914;BME280;58179;48.776;9.124;2024-03-07T02:10:05;97800.28;;;3.23;100.00
55914;BME280;58179;48.776;9.124;2024-03-07T02:12:32;97801.81;;;3.10;100.00
55914;BME280;58179;48.776;9.124;2024-03-07T02:14:58;97794.13;;;3.02;100.00
55914;BME280;58179;48.776;9.124;2024-03-07T02:17:26;97796.28;;;2.92;100.00
55914;BME280;58179;48.776;9.124;2024-03-07T02:19:52;97797.25;;;2.85;100.00
55914;BME280;58179;48.776;9.124;2024-03-07T02:22:20;97792.44;;;2.88;100.00
55914;BME280;58179;48.776;9.124;2024-03-07T02:24:46;97798.63;;;2.81;100.00
55914;BME280;58179;48.776;9.124;2024-03-07T02:27:13;97791.09;;;2.71;100.00
55914;BME280;58179;48.776;9.124;2024-03-07T02:29:40;97790.25;;;2.64;100.00
55914;BME280;58179;48.776;9.124;2024-03-07T02:32:07;97783.81;;;2.60;100.00
55914;BME280;58179;48.776;9.124;2024-03-07T02:34:33;97789.81;;;2.54;100.00
55914;BME280;58179;48.776;9.124;2024-03-07T02:37:00;97790.75;;;2.46;100.00
55914;BME280;58179;48.776;9.124;2024-03-07T02:39:27;97784.22;;;2.36;100.00
55914;BME280;58179;48.776;9.124;2024-03-07T02:41:54;97777.38;;;2.34;100.00
55914;BME280;58179;48.776;9.124;2024-03-07T02:44:20;97780.34;;;2.25;100.00
55914;BME280;58179;48.776;9.124;2024-03-07T02:46:46;97790.34;;;2.21;100.00
55914;BME280;58179;48.776;9.124;2024-03-07T02:49:13;97786.50;;;2.17;100.00
55914;BME280;58179;48.776;9.124;2024-03-07T02:51:40;97783.25;;;2.15;100.00
55914;BME280;58179;48.776;9.124;2024-03-07T02:54:08;97774.38;;;2.10;100.00
55914;BME280;58179;48.776;9.124;2024-03-07T02:56:35;97775.75;;;2.06;100.00
55914;BME280;58179;48.776;9.124;2024-03-07T02:59:01;97777.94;;;2.02;100.00
55914;BME280;58179;48.776;9.124;2024-03-07T03:01:27;97780.84;;;1.92;100.00
55914;BME280;58179;48.776;9.124;2024-03-07T03:03:53;97772.16;;;1.85;100.00
55914;BME280;58179;48.776;9.124;2024-03-07T03:06:20;97779.53;;;1.82;100.00
55914;BME280;58179;48.776;9.124;2024-03-07T03:08:48;97780.44;;;1.74;100.00
55914;BME280;58179;48.776;9.124;2024-03-07T03:11:15;97778.78;;;1.67;100.00
55914;BME280;58179;48.776;9.124;2024-03-07T03:13:42;97775.09;;;1.61;100.00
55914;BME280;58179;48.776;9.124;2024-03-07T03:16:09;97780.16;;;1.63;100.00
55914;BME280;58179;48.776;9.124;2024-03-07T03:18:38;97770.69;;;1.62;100.00
55914;BME280;58179;48.776;9.124;2024-03-07T03:21:05;97773.25;;;1.55;100.00
55914;BME280;58179;48.776;9.124;2024-03-07T03:23:31;97770.28;;;1.43;100.00
55914;BME280;58179;48.776;9.124;2024-03-07T03:25:57;97772.81;;;1.37;100.00
55914;BME280;58179;48.776;9.124;2024-03-07T03:28:23;97763.84;;;1.39;100.00
55914;BME280;58179;48.776;9.124;2024-03-07T03:30:51;97769.13;;;1.46;100.00
55914;BME280;58179;48.776;9.124;2024-03-07T03:33:19;97775.19;;;1.32;100.00
55914;BME280;58179;48.776;9.124;2024-03-07T03:35:47;97767.09;;;1.27;100.00
55914;BME280;58179;48.776;9.124;2024-03-07T03:38:13;97773.56;;;1.31;100.00
55914;BME280;58179;48.776;9.124;2024-03-07T03:40:40;97766.22;;;1.20;100.00
55914;BME280;58179;48.776;9.124;2024-03-07T03:43:06;97769.81;;;1.19;100.00
55914;BME280;58179;48.776;9.124;2024-03-07T03:45:32;97770.09;;;1.09;100.00
55914;BME280;58179;48.776;9.124;2024-03-07T03:48:01;97759.84;;;1.07;100.00
55914;BME280;58179;48.776;9.124;2024-03-07T03:50:27;97756.59;;;1.05;100.00
55914;BME280;58179;48.776;9.124;2024-03-07T03:52:54;97756.81;;;1.04;100.00
55914;BME280;58179;48.776;9.124;2024-03-07T03:55:21;97760.22;;;1.04;100.00
55914;BME280;58179;48.776;9.124;2024-03-07T03:57:47;97759.50;;;0.96;100.00
55914;BME280;58179;48.776;9.124;2024-03-07T04:00:14;97759.31;;;0.97;100.00
55914;BME280;58179;48.776;9.124;2024-03-07T04:02:43;97762.63;;;1.06;100.00
55914;BME280;58179;48.776;9.124;2024-03-07T04:05:12;97766.41;;;1.03;100.00
55914;BME280;58179;48.776;9.124;2024-03-07T04:07:39;97761.03;;;0.90;100.00
55914;BME280;58179;48.776;9.124;2024-03-07T04:10:06;97759.69;;;0.94;100.00
55914;BME280;58179;48.776;9.124;2024-03-07T04:12:36;97758.59;;;0.89;100.00
55914;BME280;58179;48.776;9.124;2024-03-07T04:15:03;97758.22;;;0.77;100.00
55914;BME280;58179;48.776;9.124;2024-03-07T04:17:30;97748.44;;;0.79;100.00
55914;BME280;58179;48.776;9.124;2024-03-07T04:19:56;97761.38;;;0.72;100.00
55914;BME280;58179;48.776;9.124;2024-03-07T04:22:26;97757.72;;;0.82;100.00
55914;BME280;58179;48.776;9.124;2024-03-07T04:24:52;97749.81;;;0.90;100.00
55914;BME280;58179;48.776;9.124;2024-03-07T04:27:21;97756.63;;;0.76;100.00
55914;BME280;58179;48.776;9.124;2024-03-07T04:29:48;97755.03;;;0.75;100.00
55914;BME280;58179;48.776;9.124;2024-03-07T04:32:15;97753.56;;;0.72;100.00
55914;BME280;58179;48.776;9.124;2024-03-07T04:34:43;97757.50;;;0.68;100.00
55914;BME280;58179;48.776;9.124;2024-03-07T04:37:09;97757.50;;;0.68;100.00
55914;BME280;58179;48.776;9.124;2024-03-07T04:39:37;97750.25;;;0.64;100.00
55914;BME280;58179;48.776;9.124;2024-03-07T04:42:04;97750.59;;;0.61;100.00
55914;BME280;58179;48.776;9.124;2024-03-07T04:44:31;97755.38;;;0.57;100.00
55914;BME280;58179;48.776;9.124;2024-03-07T04:46:59;97756.19;;;0.58;100.00
55914;BME280;58179;48.776;9.124;2024-03-07T04:49:28;97750.22;;;0.49;100.00
55914;BME280;58179;48.776;9.124;2024-03-07T04:51:56;97752.03;;;0.49;100.00
55914;BME280;58179;48.776;9.124;2024-03-07T04:54:27;97750.56;;;0.46;100.00
55914;BME280;58179;48.776;9.124;2024-03-07T04:56:55;97751.13;;;0.42;100.00
55914;BME280;58179;48.776;9.124;2024-03-07T04:59:22;97754.28;;;0.37;100.00
55914;BME280;58179;48.776;9.124;2024-03-07T05:01:49;97753.91;;;0.40;100.00
55914;BME280;58179;48.776;9.124;2024-03-07T05:04:17;97757.94;;;0.43;100.00
55914;BME280;58179;48.776;9.124;2024-03-07T05:06:43;97758.84;;;0.35;100.00
55914;BME280;58179;48.776;9.124;2024-03-07T05:09:11;97762.25;;;0.35;100.00
55914;BME280;58179;48.776;9.124;2024-03-07T05:11:49;97757.38;;;0.32;100.00
55914;BME280;58179;48.776;9.124;2024-03-07T05:14:19;97757.47;;;0.24;100.00
55914;BME280;58179;48.776;9.124;2024-03-07T05:16:46;97761.69;;;0.25;100.00
55914;BME280;58179;48.776;9.124;2024-03-07T05:19:27;97757.53;;;0.16;100.00
55914;BME280;58179;48.776;9.124;2024-03-07T05:21:54;97754.25;;;0.22;100.00
55914;BME280;58179;48.776;9.124;2024-03-07T05:24:21;97756.38;;;0.19;100.00
55914;BME280;58179;48.776;9.124;2024-03-07T05:26:47;97756.44;;;0.11;100.00
55914;BME280;58179;48.776;9.124;2024-03-07T05:29:13;97756.63;;;0.09;100.00
55914;BME280;58179;48.776;9.124;2024-03-07T05:31:40;97744.88;;;0.13;100.00
55914;BME280;58179;48.776;9.124;2024-03-07T05:34:13;97748.97;;;0.08;100.00
55914;BME280;58179;48.776;9.124;2024-03-07T05:36:40;97751.31;;;0.03;100.00
55914;BME280;58179;48.776;9.124;2024-03-07T05:39:11;97747.28;;;0.00;100.00
55914;BME280;58179;48.776;9.124;2024-03-07T05:41:37;97746.66;;;-0.02;100.00
55914;BME280;58179;48.776;9.124;2024-03-07T05:44:04;97744.22;;;-0.04;100.00
55914;BME280;58179;48.776;9.124;2024-03-07T05:46:35;97744.38;;;-0.05;100.00
55914;BME280;58179;48.776;9.124;2024-03-07T05:49:02;97749.94;;;-0.08;100.00
55914;BME280;58179;48.776;9.124;2024-03-07T05:51:29;97745.19;;;-0.05;100.00
55914;BME280;58179;48.776;9.124;2024-03-07T05:53:55;97748.66;;;-0.12;100.00
55914;BME280;58179;48.776;9.124;2024-03-07T05:56:21;97745.91;;;-0.11;100.00
55914;BME280;58179;48.776;9.124;2024-03-07T05:58:48;97739.59;;;-0.16;100.00
55914;BME280;58179;48.776;9.124;2024-03-07T06:01:14;97748.56;;;-0.19;100.00
55914;BME280;58179;48.776;9.124;2024-03-07T06:03:42;97747.41;;;-0.16;100.00
55914;BME280;58179;48.776;9.124;2024-03-07T06:06:09;97744.81;;;-0.16;100.00
55914;BME280;58179;48.776;9.124;2024-03-07T06:08:37;97742.19;;;-0.16;100.00
55914;BME280;58179;48.776;9.124;2024-03-07T06:11:08;97747.22;;;-0.15;100.00
55914;BME280;58179;48.776;9.124;2024-03-07T06:13:34;97740.75;;;-0.19;100.00
55914;BME280;58179;48.776;9.124;2024-03-07T06:16:00;97744.81;;;-0.16;100.00
55914;BME280;58179;48.776;9.124;2024-03-07T06:18:31;97743.03;;;-0.16;100.00
55914;BME280;58179;48.776;9.124;2024-03-07T06:20:57;97736.19;;;-0.17;100.00
55914;BME280;58179;48.776;9.124;2024-03-07T06:23:25;97744.81;;;-0.16;100.00
55914;BME280;58179;48.776;9.124;2024-03-07T06:25:54;97739.88;;;-0.11;100.00
55914;BME280;58179;48.776;9.124;2024-03-07T06:28:21;97742.31;;;-0.10;100.00
55914;BME280;58179;48.776;9.124;2024-03-07T06:30:48;97733.31;;;-0.07;100.00
55914;BME280;58179;48.776;9.124;2024-03-07T06:33:14;97736.94;;;-0.08;100.00
55914;BME280;58179;48.776;9.124;2024-03-07T06:35:42;97740.78;;;-0.04;100.00
55914;BME280;58179;48.776;9.124;2024-03-07T06:38:09;97740.56;;;0.06;100.00
55914;BME280;58179;48.776;9.124;2024-03-07T06:40:37;97739.75;;;0.05;100.00
55914;BME280;58179;48.776;9.124;2024-03-07T06:43:04;97732.59;;;0.07;100.00
55914;BME280;58179;48.776;9.124;2024-03-07T06:45:32;97739.22;;;0.10;100.00
55914;BME280;58179;48.776;9.124;2024-03-07T06:47:58;97741.31;;;0.14;100.00
55914;BME280;58179;48.776;9.124;2024-03-07T06:50:24;97742.56;;;0.18;100.00
55914;BME280;58179;48.776;9.124;2024-03-07T06:52:51;97738.44;;;0.24;100.00
55914;BME280;58179;48.776;9.124;2024-03-07T06:55:18;97739.53;;;0.29;100.00
55914;BME280;58179;48.776;9.124;2024-03-07T06:57:46;97744.03;;;0.35;100.00
55914;BME280;58179;48.776;9.124;2024-03-07T07:00:13;97745.28;;;0.39;100.00
55914;BME280;58179;48.776;9.124;2024-03-07T07:02:40;97749.44;;;0.49;100.00
55914;BME280;58179;48.776;9.124;2024-03-07T07:05:07;97745.94;;;0.56;100.00
55914;BME280;58179;48.776;9.124;2024-03-07T07:07:37;97748.88;;;0.68;100.00
55914;BME280;58179;48.776;9.124;2024-03-07T07:10:04;97747.47;;;0.80;100.00
55914;BME280;58179;48.776;9.124;2024-03-07T07:12:33;97752.03;;;0.93;100.00
55914;BME280;58179;48.776;9.124;2024-03-07T07:15:02;97754.19;;;1.04;100.00
55914;BME280;58179;48.776;9.124;2024-03-07T07:17:29;97749.31;;;1.15;100.00
55914;BME280;58179;48.776;9.124;2024-03-07T07:19:57;97745.44;;;1.26;100.00
55914;BME280;58179;48.776;9.124;2024-03-07T07:22:23;97742.34;;;1.37;100.00
55914;BME280;58179;48.776;9.124;2024-03-07T07:24:49;97734.03;;;1.48;100.00
55914;BME280;58179;48.776;9.124;2024-03-07T07:27:15;97748.78;;;1.56;100.00
55914;BME280;58179;48.776;9.124;2024-03-07T07:29:41;97740.19;;;1.62;100.00
55914;BME280;58179;48.776;9.124;2024-03-07T07:32:09;97735.84;;;1.69;100.00
55914;BME280;58179;48.776;9.124;2024-03-07T07:34:41;97740.94;;;1.77;100.00
55914;BME280;58179;48.776;9.124;2024-03-07T07:37:08;97729.94;;;1.82;100.00
55914;BME280;58179;48.776;9.124;2024-03-07T07:39:35;97726.59;;;1.88;100.00
55914;BME280;58179;48.776;9.124;2024-03-07T07:42:01;97731.66;;;1.96;100.00
55914;BME280;58179;48.776;9.124;2024-03-07T07:44:28;97728.94;;;2.04;100.00
55914;BME280;58179;48.776;9.124;2024-03-07T07:46:55;97733.84;;;2.14;100.00
55914;BME280;58179;48.776;9.124;2024-03-07T07:49:24;97736.53;;;2.27;100.00
55914;BME280;58179;48.776;9.124;2024-03-07T07:51:51;97724.19;;;2.42;100.00
55914;BME280;58179;48.776;9.124;2024-03-07T07:54:19;97715.66;;;2.55;100.00
55914;BME280;58179;48.776;9.124;2024-03-07T07:56:48;97719.13;;;2.68;100.00
55914;BME280;58179;48.776;9.124;2024-03-07T07:59:14;97714.34;;;2.79;100.00
55914;BME280;58179;48.776;9.124;2024-03-07T08:01:40;97714.00;;;2.88;100.00
55914;BME280;58179;48.776;9.124;2024-03-07T08:04:07;97706.59;;;2.92;100.00
55914;BME280;58179;48.776;9.124;2024-03-07T08:06:37;97710.22;;;2.97;100.00
55914;BME280;58179;48.776;9.124;2024-03-07T08:09:03;97707.22;;;3.00;100.00
55914;BME280;58179;48.776;9.124;2024-03-07T08:11:33;97713.69;;;3.04;100.00
55914;BME280;58179;48.776;9.124;2024-03-07T08:13:59;97706.03;;;3.09;100.00
55914;BME280;58179;48.776;9.124;2024-03-07T08:16:25;97706.50;;;3.20;100.00
55914;BME280;58179;48.776;9.124;2024-03-07T08:18:52;97701.72;;;3.36;100.00
55914;BME280;58179;48.776;9.124;2024-03-07T08:21:18;97707.41;;;3.53;100.00
55914;BME280;58179;48.776;9.124;2024-03-07T08:23:45;97708.63;;;3.70;100.00
55914;BME280;58179;48.776;9.124;2024-03-07T08:26:12;97706.63;;;3.85;100.00
55914;BME280;58179;48.776;9.124;2024-03-07T08:28:38;97709.84;;;3.94;100.00
55914;BME280;58179;48.776;9.124;2024-03-07T08:31:04;97707.22;;;4.01;100.00
55914;BME280;58179;48.776;9.124;2024-03-07T08:33:31;97703.63;;;3.95;100.00
55914;BME280;58179;48.776;9.124;2024-03-07T08:35:59;97697.75;;;3.93;100.00
55914;BME280;58179;48.776;9.124;2024-03-07T08:38:25;97698.75;;;3.92;100.00
55914;BME280;58179;48.776;9.124;2024-03-07T08:40:53;97704.63;;;3.94;100.00
55914;BME280;58179;48.776;9.124;2024-03-07T08:43:19;97696.75;;;4.01;100.00
55914;BME280;58179;48.776;9.124;2024-03-07T08:45:45;97702.00;;;4.01;100.00
55914;BME280;58179;48.776;9.124;2024-03-07T08:48:11;97700.81;;;4.03;100.00
55914;BME280;58179;48.776;9.124;2024-03-07T08:50:39;97695.16;;;4.00;100.00
55914;BME280;58179;48.776;9.124;2024-03-07T08:53:05;97703.81;;;4.00;100.00
55914;BME280;58179;48.776;9.124;2024-03-07T08:55:32;97700.81;;;4.03;100.00
55914;BME280;58179;48.776;9.124;2024-03-07T08:57:59;97696.16;;;4.05;100.00
55914;BME280;58179;48.776;9.124;2024-03-07T09:00:26;97697.78;;;4.13;100.00
55914;BME280;58179;48.776;9.124;2024-03-07T09:02:56;97695.53;;;4.16;100.00
55914;BME280;58179;48.776;9.124;2024-03-07T09:05:25;97689.28;;;4.31;100.00
55914;BME280;58179;48.776;9.124;2024-03-07T09:07:53;97691.88;;;4.44;100.00
55914;BME280;58179;48.776;9.124;2024-03-07T09:10:20;97688.22;;;4.51;100.00
55914;BME280;58179;48.776;9.124;2024-03-07T09:12:49;97688.63;;;4.61;100.00
55914;BME280;58179;48.776;9.124;2024-03-07T09:15:17;97684.16;;;4.68;100.00
55914;BME280;58179;48.776;9.124;2024-03-07T09:17:45;97679.72;;;4.76;100.00
55914;BME280;58179;48.776;9.124;2024-03-07T09:20:13;97689.38;;;4.82;100.00
55914;BME280;58179;48.776;9.124;2024-03-07T09:22:42;97681.50;;;4.88;100.00
55914;BME280;58179;48.776;9.124;2024-03-07T09:25:09;97679.66;;;4.95;100.00
55914;BME280;58179;48.776;9.124;2024-03-07T09:27:36;97678.03;;;4.94;100.00
55914;BME280;58179;48.776;9.124;2024-03-07T09:30:04;97677.34;;;5.19;100.00
55914;BME280;58179;48.776;9.124;2024-03-07T09:32:31;97681.06;;;5.36;100.00
55914;BME280;58179;48.776;9.124;2024-03-07T09:34:59;97674.66;;;5.63;100.00
55914;BME280;58179;48.776;9.124;2024-03-07T09:37:27;97676.91;;;5.91;100.00
55914;BME280;58179;48.776;9.124;2024-03-07T09:39:53;97666.13;;;6.42;100.00
55914;BME280;58179;48.776;9.124;2024-03-07T09:42:20;97665.53;;;6.40;100.00
55914;BME280;58179;48.776;9.124;2024-03-07T09:44:49;97671.06;;;6.32;100.00
55914;BME280;58179;48.776;9.124;2024-03-07T09:47:16;97669.09;;;6.52;100.00
55914;BME280;58179;48.776;9.124;2024-03-07T09:49:46;97662.50;;;6.43;100.00
55914;BME280;58179;48.776;9.124;2024-03-07T09:52:14;97672.13;;;6.49;100.00
55914;BME280;58179;48.776;9.124;2024-03-07T09:54:42;97668.00;;;6.60;100.00
55914;BME280;58179;48.776;9.124;2024-03-07T09:57:11;97673.09;;;6.73;100.00
55914;BME280;58179;48.776;9.124;2024-03-07T09:59:39;97670.53;;;6.85;100.00
55914;BME280;58179;48.776;9.124;2024-03-07T10:02:09;97670.41;;;6.98;100.00
55914;BME280;58179;48.776;9.124;2024-03-07T10:04:46;97665.97;;;7.10;100.00
55914;BME280;58179;48.776;9.124;2024-03-07T10:07:17;97663.72;;;7.14;100.00
55914;BME280;58179;48.776;9.124;2024-03-07T10:09:43;97664.53;;;6.96;100.00
55914;BME280;58179;48.776;9.124;2024-03-07T10:12:10;97675.56;;;6.86;100.00
55914;BME280;58179;48.776;9.124;2024-03-07T10:14:38;97673.44;;;6.77;100.00
55914;BME280;58179;48.776;9.124;2024-03-07T10:17:05;97672.97;;;6.68;100.00
55914;BME280;58179;48.776;9.124;2024-03-07T10:19:31;97668.88;;;6.72;100.00
55914;BME280;58179;48.776;9.124;2024-03-07T10:21:59;97657.69;;;7.25;100.00
55914;BME280;58179;48.776;9.124;2024-03-07T10:24:27;97654.47;;;7.23;100.00
55914;BME280;58179;48.776;9.124;2024-03-07T10:26:54;97659.84;;;7.99;100.00
55914;BME280;58179;48.776;9.124;2024-03-07T10:29:24;97656.44;;;8.45;100.00
55914;BME280;58179;48.776;9.124;2024-03-07T10:31:50;97659.84;;;7.88;100.00
55914;BME280;58179;48.776;9.124;2024-03-07T10:34:17;97659.38;;;7.91;100.00
55914;BME280;58179;48.776;9.124;2024-03-07T10:36:44;97655.94;;;7.49;100.00
55914;BME280;58179;48.776;9.124;2024-03-07T10:39:12;97655.25;;;7.42;100.00
55914;BME280;58179;48.776;9.124;2024-03-07T10:41:47;97655.06;;;7.25;100.00
55914;BME280;58179;48.776;9.124;2024-03-07T10:44:19;97660.75;;;7.22;100.00
55914;BME280;58179;48.776;9.124;2024-03-07T10:46:52;97653.38;;;7.84;100.00
55914;BME280;58179;48.776;9.124;2024-03-07T10:49:20;97652.91;;;7.75;100.00
55914;BME280;58179;48.776;9.124;2024-03-07T10:51:58;97653.28;;;7.78;100.00
55914;BME280;58179;48.776;9.124;2024-03-07T10:54:36;97657.84;;;7.83;100.00
55914;BME280;58179;48.776;9.124;2024-03-07T10:57:18;97652.59;;;7.83;100.00
55914;BME280;58179;48.776;9.124;2024-03-07T10:59:50;97650.66;;;7.78;100.00
55914;BME280;58179;48.776;9.124;2024-03-07T11:02:24;97651.56;;;7.72;100.00
55914;BME280;58179;48.776;9.124;2024-03-07T11:04:53;97655.56;;;7.75;100.00
55914;BME280;58179;48.776;9.124;2024-03-07T11:07:21;97653.97;;;7.74;100.00
55914;BME280;58179;48.776;9.124;2024-03-07T11:09:50;97639.28;;;7.66;100.00
55914;BME280;58179;48.776;9.124;2024-03-07T11:12:19;97650.97;;;7.70;100.00
55914;BME280;58179;48.776;9.124;2024-03-07T11:14:46;97636.41;;;7.68;100.00
55914;BME280;58179;48.776;9.124;2024-03-07T11:17:14;97643.50;;;7.67;100.00
55914;BME280;58179;48.776;9.124;2024-03-07T11:19:41;97632.31;;;7.72;100.00
55914;BME280;58179;48.776;9.124;2024-03-07T11:22:08;97629.34;;;7.80;100.00
55914;BME280;58179;48.776;9.124;2024-03-07T11:24:43;97627.41;;;7.87;100.00
55914;BME280;58179;48.776;9.124;2024-03-07T11:27:12;97626.50;;;7.82;100.00
55914;BME280;58179;48.776;9.124;2024-03-07T11:29:43;97621.78;;;7.95;100.00
55914;BME280;58179;48.776;9.124;2024-03-07T11:32:13;97623.84;;;8.05;100.00
55914;BME280;58179;48.776;9.124;2024-03-07T11:34:40;97608.97;;;8.10;100.00
55914;BME280;58179;48.776;9.124;2024-03-07T11:37:17;97611.59;;;8.22;100.00
55914;BME280;58179;48.776;9.124;2024-03-07T11:39:44;97602.31;;;8.43;100.00
55914;BME280;58179;48.776;9.124;2024-03-07T11:42:27;97603.38;;;8.82;100.00
55914;BME280;58179;48.776;9.124;2024-03-07T11:44:59;97603.38;;;9.10;100.00
55914;BME280;58179;48.776;9.124;2024-03-07T11:47:26;97605.13;;;9.33;100.00
55914;BME280;58179;48.776;9.124;2024-03-07T11:49:55;97606.53;;;8.96;100.00
55914;BME280;58179;48.776;9.124;2024-03-07T11:52:23;97600.19;;;8.68;100.00
55914;BME280;58179;48.776;9.124;2024-03-07T11:54:50;97601.13;;;8.62;100.00
55914;BME280;58179;48.776;9.124;2024-03-07T11:57:17;97599.19;;;8.58;100.00
55914;BME280;58179;48.776;9.124;2024-03-07T11:59:48;97590.97;;;8.31;100.00
55914;BME280;58179;48.776;9.124;2024-03-07T12:02:19;97587.63;;;8.35;100.00
55914;BME280;58179;48.776;9.124;2024-03-07T12:04:48;97586.59;;;8.36;100.00
55914;BME280;58179;48.776;9.124;2024-03-07T12:07:15;97584.53;;;8.27;100.00
55914;BME280;58179;48.776;9.124;2024-03-07T12:09:43;97585.09;;;8.29;100.00
55914;BME280;58179;48.776;9.124;2024-03-07T12:12:17;97587.19;;;8.27;100.00
55914;BME280;58179;48.776;9.124;2024-03-07T12:14:45;97583.16;;;8.24;100.00
55914;BME280;58179;48.776;9.124;2024-03-07T12:17:11;97579.84;;;8.17;100.00
55914;BME280;58179;48.776;9.124;2024-03-07T12:19:38;97582.47;;;8.17;100.00
55914;BME280;58179;48.776;9.124;2024-03-07T12:22:09;97572.84;;;8.11;100.00
55914;BME280;58179;48.776;9.124;2024-03-07T12:24:39;97576.50;;;7.98;100.00
55914;BME280;58179;48.776;9.124;2024-03-07T12:27:09;97571.94;;;7.94;100.00
55914;BME280;58179;48.776;9.124;2024-03-07T12:29:36;97573.31;;;7.85;100.00
55914;BME280;58179;48.776;9.124;2024-03-07T12:32:06;97570.19;;;7.76;100.00
55914;BME280;58179;48.776;9.124;2024-03-07T12:34:34;97572.16;;;7.69;100.00
55914;BME280;58179;48.776;9.124;2024-03-07T12:37:03;97572.25;;;7.62;100.00
55914;BME280;58179;48.776;9.124;2024-03-07T12:39:33;97574.63;;;7.52;100.00
55914;BME280;58179;48.776;9.124;2024-03-07T12:42:03;97573.94;;;7.45;100.00
55914;BME280;58179;48.776;9.124;2024-03-07T12:44:39;97573.50;;;7.36;100.00
55914;BME280;58179;48.776;9.124;2024-03-07T12:47:10;97574.38;;;7.30;100.00
55914;BME280;58179;48.776;9.124;2024-03-07T12:49:36;97570.47;;;7.21;100.00
55914;BME280;58179;48.776;9.124;2024-03-07T12:52:03;97568.16;;;7.13;100.00
55914;BME280;58179;48.776;9.124;2024-03-07T12:54:29;97556.34;;;7.04;100.00
55914;BME280;58179;48.776;9.124;2024-03-07T12:56:56;97564.09;;;6.99;100.00
55914;BME280;58179;48.776;9.124;2024-03-07T12:59:24;97566.16;;;6.97;100.00
55914;BME280;58179;48.776;9.124;2024-03-07T13:01:50;97569.81;;;6.96;100.00